You are not logged in, Click here to log in
ICAO: RPLL Country: 菲律賓馬尼拉
Latitude: 14.5123 Longitude: 121.017
Total Arrivals: 102 Total Departures: 103
Latest Arrival: CI703C (RCMQ-RPLL)Jason. Li Latest Departure: BR278 (RPLL-RCTP)鈺友. 陳
Scenery:
METAR : RPLL 241100Z 11006KT 9000 SCT023 OVC100 31/25 Q1009 NOSIG RMK A2980

尼諾伊·艾奎諾國際機場MNL